Time;durP1;ratioP1;P1;durP2;ratioP2;P2;SDS_P1;SDS_P2;PMS_P1;PMS_P2;Temp;Humidity;BMP_temperature;BMP_pressure;BME280_temperature;BME280_humidity;BME280_pressure;Samples;Min_cycle;Max_cycle;Signal;HPM_P1;HPM_P2
2023/01/22 00:01:17;;;;;;;13.57;6.60;;;;;;;;;;5056800;28;20451;-57
2023/01/22 00:03:43;;;;;;;9.40;7.23;;;;;;;;;;5057543;28;20398;-55
2023/01/22 00:06:10;;;;;;;8.03;5.63;;;;;;;;;;5056893;28;20428;-57
2023/01/22 00:08:36;;;;;;;7.87;5.53;;;;;;;;;;5056847;28;20041;-55
2023/01/22 00:11:02;;;;;;;6.53;5.97;;;;;;;;;;5056887;28;20033;-57
2023/01/22 00:13:28;;;;;;;7.60;5.87;;;;;;;;;;5056826;28;20060;-57
2023/01/22 00:15:56;;;;;;;12.30;6.90;;;;;;;;;;5057084;28;20060;-56
2023/01/22 00:18:22;;;;;;;8.80;6.83;;;;;;;;;;5056703;28;20459;-56
2023/01/22 00:20:49;;;;;;;5.80;5.03;;;;;;;;;;5057115;28;20465;-56
2023/01/22 00:23:15;;;;;;;10.00;8.07;;;;;;;;;;5056600;28;20048;-57
2023/01/22 00:25:41;;;;;;;9.07;6.33;;;;;;;;;;5056938;28;20029;-54
2023/01/22 00:28:07;;;;;;;7.60;6.73;;;;;;;;;;5056341;28;20438;-57
2023/01/22 00:30:33;;;;;;;8.20;7.10;;;;;;;;;;5056783;28;20061;-57
2023/01/22 00:32:59;;;;;;;8.27;5.70;;;;;;;;;;5056919;28;20155;-57
2023/01/22 00:35:25;;;;;;;10.73;7.27;;;;;;;;;;5056513;28;20431;-58
2023/01/22 00:37:51;;;;;;;5.87;5.10;;;;;;;;;;5056831;28;20040;-58
2023/01/22 00:40:17;;;;;;;6.00;5.17;;;;;;;;;;5056260;28;20086;-58
2023/01/22 00:42:43;;;;;;;6.97;4.53;;;;;;;;;;5056205;28;20029;-55
2023/01/22 00:45:10;;;;;;;5.07;4.53;;;;;;;;;;5056189;28;20481;-57
2023/01/22 00:47:36;;;;;;;7.83;6.87;;;;;;;;;;5056764;28;20059;-55
2023/01/22 00:50:02;;;;;;;8.47;6.90;;;;;;;;;;5056023;28;20427;-56
2023/01/22 00:52:28;;;;;;;6.80;6.17;;;;;;;;;;5056389;28;20108;-57
2023/01/22 00:54:54;;;;;;;7.07;5.77;;;;;;;;;;5056306;28;20060;-58
2023/01/22 00:57:20;;;;;;;5.40;4.50;;;;;;;;;;5055646;28;20021;-54
2023/01/22 00:59:47;;;;;;;10.73;6.87;;;;;;;;;;5055104;28;20033;-55
2023/01/22 01:02:13;;;;;;;6.77;5.27;;;;;;;;;;5056113;28;20049;-57
2023/01/22 01:04:39;;;;;;;9.20;5.50;;;;;;;;;;5055911;28;20074;-58
2023/01/22 01:07:05;;;;;;;9.87;6.23;;;;;;;;;;5055675;28;20097;-53
2023/01/22 01:09:31;;;;;;;9.90;7.00;;;;;;;;;;5055926;28;20032;-58
2023/01/22 01:11:57;;;;;;;12.33;6.90;;;;;;;;;;5055964;28;20033;-56
2023/01/22 01:14:23;;;;;;;10.50;7.67;;;;;;;;;;5055665;28;20021;-56
2023/01/22 01:16:50;;;;;;;11.07;6.37;;;;;;;;;;5055656;28;20079;-57
2023/01/22 01:19:16;;;;;;;10.40;8.93;;;;;;;;;;5055516;28;20110;-58
2023/01/22 01:21:43;;;;;;;8.73;6.90;;;;;;;;;;5055529;28;20025;-57
2023/01/22 01:24:10;;;;;;;5.53;3.80;;;;;;;;;;5055475;28;20409;-56
2023/01/22 01:26:36;;;;;;;11.23;9.13;;;;;;;;;;5055442;28;20031;-56
2023/01/22 01:29:06;;;;;;;10.37;7.70;;;;;;;;;;5055728;28;20336;-57
2023/01/22 01:31:32;;;;;;;6.30;5.70;;;;;;;;;;5055569;28;20470;-57
2023/01/22 01:33:59;;;;;;;8.67;7.20;;;;;;;;;;5055573;28;20028;-58
2023/01/22 01:36:25;;;;;;;8.73;7.83;;;;;;;;;;5055585;28;20463;-56
2023/01/22 01:38:53;;;;;;;10.23;8.53;;;;;;;;;;5055192;28;20108;-57
2023/01/22 01:41:20;;;;;;;7.77;6.47;;;;;;;;;;5055148;28;20031;-55
2023/01/22 01:43:46;;;;;;;10.47;9.33;;;;;;;;;;5054985;28;20041;-56
2023/01/22 01:46:19;;;;;;;6.53;5.23;;;;;;;;;;5055672;28;20032;-57
2023/01/22 01:48:47;;;;;;;11.40;8.00;;;;;;;;;;5055271;28;20037;-58
2023/01/22 01:51:25;;;;;;;8.43;5.80;;;;;;;;;;5055002;28;20029;-57
2023/01/22 01:53:51;;;;;;;10.03;7.60;;;;;;;;;;5054973;28;20067;-57
2023/01/22 01:56:22;;;;;;;7.33;5.67;;;;;;;;;;5055284;28;20025;-57
2023/01/22 01:58:50;;;;;;;7.03;5.33;;;;;;;;;;5054880;28;20064;-57
2023/01/22 02:01:17;;;;;;;7.60;5.67;;;;;;;;;;5054521;28;20449;-58
2023/01/22 02:03:44;;;;;;;6.13;5.33;;;;;;;;;;5055172;28;20459;-56
2023/01/22 02:06:11;;;;;;;9.93;7.70;;;;;;;;;;5055231;28;20426;-57
2023/01/22 02:08:37;;;;;;;7.13;5.63;;;;;;;;;;5055094;28;20102;-56
2023/01/22 02:11:03;;;;;;;10.37;6.40;;;;;;;;;;5053898;28;20582;-58
2023/01/22 02:13:32;;;;;;;7.90;5.70;;;;;;;;;;5054292;28;20490;-57
2023/01/22 02:15:57;;;;;;;7.33;6.57;;;;;;;;;;5054774;28;20082;-57
2023/01/22 02:18:23;;;;;;;9.13;8.10;;;;;;;;;;5054445;28;20116;-56
2023/01/22 02:20:56;;;;;;;6.93;5.57;;;;;;;;;;5054391;28;20021;-57
2023/01/22 02:23:23;;;;;;;8.80;7.27;;;;;;;;;;5054920;28;20032;-57
2023/01/22 02:25:49;;;;;;;9.53;8.00;;;;;;;;;;5054443;28;20512;-58
2023/01/22 02:28:15;;;;;;;9.50;8.60;;;;;;;;;;5054760;28;20122;-55
2023/01/22 02:30:42;;;;;;;9.53;7.03;;;;;;;;;;5054727;28;20489;-56
2023/01/22 02:33:08;;;;;;;11.23;7.83;;;;;;;;;;5054254;28;20064;-57
2023/01/22 02:35:34;;;;;;;8.90;7.57;;;;;;;;;;5054523;28;20075;-57
2023/01/22 02:38:00;;;;;;;7.77;7.03;;;;;;;;;;5054068;28;20017;-55
2023/01/22 02:40:28;;;;;;;6.80;5.83;;;;;;;;;;5053819;28;20517;-57
2023/01/22 02:42:54;;;;;;;11.60;8.87;;;;;;;;;;5054340;28;20021;-57
2023/01/22 02:45:20;;;;;;;8.30;7.47;;;;;;;;;;5054246;28;20060;-56
2023/01/22 02:47:46;;;;;;;8.47;7.43;;;;;;;;;;5054474;28;20435;-57
2023/01/22 02:50:12;;;;;;;9.37;6.83;;;;;;;;;;5053532;28;20090;-57
2023/01/22 02:52:38;;;;;;;11.17;8.40;;;;;;;;;;5053900;28;20112;-57
2023/01/22 02:55:04;;;;;;;8.40;7.60;;;;;;;;;;5053631;28;20507;-57
2023/01/22 02:57:31;;;;;;;6.63;5.77;;;;;;;;;;5053800;28;20063;-57
2023/01/22 02:59:57;;;;;;;11.00;6.67;;;;;;;;;;5053977;28;20524;-55
2023/01/22 03:02:23;;;;;;;13.50;8.30;;;;;;;;;;5053554;28;20513;-55
2023/01/22 03:04:49;;;;;;;10.43;8.40;;;;;;;;;;5054544;28;20359;-56
2023/01/22 03:07:16;;;;;;;7.97;7.27;;;;;;;;;;5053849;28;20025;-54
2023/01/22 03:09:42;;;;;;;8.30;7.17;;;;;;;;;;5053576;28;20048;-57
2023/01/22 03:12:08;;;;;;;10.40;9.23;;;;;;;;;;5053867;28;20455;-56
2023/01/22 03:22:48;;;;;;;7.57;6.67;;;;;;;;;;5053736;28;20045;-55
2023/01/22 03:25:14;;;;;;;7.93;6.03;;;;;;;;;;5053869;28;20021;-56
2023/01/22 03:28:07;;;;;;;11.57;7.60;;;;;;;;;;5053743;28;20102;-55
2023/01/22 03:30:26;;;;;;;7.93;6.17;;;;;;;;;;5053333;28;20041;-57
2023/01/22 03:32:52;;;;;;;11.33;7.43;;;;;;;;;;5053382;28;20021;-56
2023/01/22 03:35:18;;;;;;;8.90;6.70;;;;;;;;;;5053472;28;20027;-57
2023/01/22 03:37:44;;;;;;;7.20;6.50;;;;;;;;;;5053868;28;20056;-56
2023/01/22 03:40:10;;;;;;;9.23;6.33;;;;;;;;;;5053297;28;20427;-58
2023/01/22 03:42:36;;;;;;;7.80;7.07;;;;;;;;;;5053839;28;20036;-58
2023/01/22 03:45:02;;;;;;;15.67;8.63;;;;;;;;;;5053425;28;20450;-58
2023/01/22 03:47:28;;;;;;;11.93;7.53;;;;;;;;;;5053890;28;20370;-58
2023/01/22 03:49:54;;;;;;;6.93;6.23;;;;;;;;;;5052953;28;20039;-56
2023/01/22 03:52:20;;;;;;;7.87;5.87;;;;;;;;;;5053296;28;20029;-57
2023/01/22 03:54:46;;;;;;;7.77;6.33;;;;;;;;;;5053737;28;20025;-52
2023/01/22 03:57:12;;;;;;;11.93;8.70;;;;;;;;;;5053721;28;20435;-54
2023/01/22 03:59:38;;;;;;;9.53;7.83;;;;;;;;;;5053342;28;20036;-56
2023/01/22 04:02:04;;;;;;;8.00;7.20;;;;;;;;;;5053246;28;20136;-56
2023/01/22 04:04:30;;;;;;;10.23;6.83;;;;;;;;;;5053460;28;20032;-54
2023/01/22 04:06:56;;;;;;;8.97;7.63;;;;;;;;;;5053357;28;20029;-55
2023/01/22 04:09:21;;;;;;;10.67;7.97;;;;;;;;;;5052782;28;20108;-56
2023/01/22 04:11:47;;;;;;;8.40;7.40;;;;;;;;;;5053097;28;20087;-54
2023/01/22 04:14:13;;;;;;;9.43;7.77;;;;;;;;;;5053130;28;20075;-55
2023/01/22 04:16:39;;;;;;;6.53;5.90;;;;;;;;;;5052830;28;20032;-53
2023/01/22 04:19:05;;;;;;;8.80;7.87;;;;;;;;;;5053125;28;20064;-58
2023/01/22 04:21:33;;;;;;;8.47;7.50;;;;;;;;;;5053044;28;20025;-55
2023/01/22 04:23:59;;;;;;;7.03;5.37;;;;;;;;;;5053600;28;20029;-58
2023/01/22 04:26:25;;;;;;;11.47;7.13;;;;;;;;;;5053397;28;20028;-57
2023/01/22 04:28:51;;;;;;;7.13;6.03;;;;;;;;;;5052669;28;20082;-57
2023/01/22 04:31:17;;;;;;;8.80;6.73;;;;;;;;;;5052967;28;20040;-57
2023/01/22 04:33:43;;;;;;;11.00;8.47;;;;;;;;;;5052941;28;20029;-58
2023/01/22 04:36:09;;;;;;;9.70;7.30;;;;;;;;;;5057405;28;20025;-58
2023/01/22 04:38:35;;;;;;;11.63;7.53;;;;;;;;;;5056523;28;20381;-57
2023/01/22 04:41:04;;;;;;;12.43;8.03;;;;;;;;;;5057077;28;20112;-54
2023/01/22 04:43:30;;;;;;;7.63;6.13;;;;;;;;;;5056063;28;20035;-55
2023/01/22 04:45:56;;;;;;;8.07;6.40;;;;;;;;;;5056357;28;20115;-57
2023/01/22 04:48:21;;;;;;;9.97;7.67;;;;;;;;;;5056845;28;20083;-58
2023/01/22 04:50:47;;;;;;;10.90;7.30;;;;;;;;;;5056253;28;20032;-57
2023/01/22 04:53:13;;;;;;;11.80;9.97;;;;;;;;;;5056245;28;20025;-54
2023/01/22 04:55:40;;;;;;;10.17;8.27;;;;;;;;;;5056799;28;20025;-58
2023/01/22 04:58:07;;;;;;;11.80;8.07;;;;;;;;;;5055765;28;20033;-57
2023/01/22 05:00:33;;;;;;;6.40;5.67;;;;;;;;;;5056179;28;20104;-57
2023/01/22 05:02:59;;;;;;;13.47;8.30;;;;;;;;;;5055680;28;20494;-57
2023/01/22 05:05:25;;;;;;;13.73;9.67;;;;;;;;;;5056354;28;20029;-52
2023/01/22 05:07:51;;;;;;;13.13;7.87;;;;;;;;;;5055591;28;20425;-57
2023/01/22 05:10:17;;;;;;;11.53;9.53;;;;;;;;;;5054912;28;20040;-55
2023/01/22 05:12:44;;;;;;;10.67;8.50;;;;;;;;;;5055904;28;20029;-54
2023/01/22 05:15:10;;;;;;;8.43;7.50;;;;;;;;;;5055893;28;20031;-56
2023/01/22 05:17:36;;;;;;;10.40;8.30;;;;;;;;;;5055857;28;20025;-58
2023/01/22 05:20:02;;;;;;;8.07;7.03;;;;;;;;;;5056251;28;20087;-57
2023/01/22 05:22:28;;;;;;;8.37;6.73;;;;;;;;;;5056032;28;20036;-58
2023/01/22 05:24:54;;;;;;;9.20;8.23;;;;;;;;;;5055771;28;20025;-52
2023/01/22 05:27:20;;;;;;;6.23;5.63;;;;;;;;;;5055658;28;20045;-54
2023/01/22 05:29:46;;;;;;;8.60;7.70;;;;;;;;;;5055503;28;20375;-58
2023/01/22 05:32:14;;;;;;;8.83;6.50;;;;;;;;;;5055585;28;20029;-56
2023/01/22 05:34:40;;;;;;;9.20;7.27;;;;;;;;;;5055883;28;20052;-56
2023/01/22 05:37:06;;;;;;;8.33;7.33;;;;;;;;;;5055509;28;20036;-57
2023/01/22 05:39:32;;;;;;;12.63;8.67;;;;;;;;;;5055359;28;20029;-59
2023/01/22 05:41:58;;;;;;;11.20;7.73;;;;;;;;;;5055396;28;20104;-57
2023/01/22 05:44:25;;;;;;;12.77;7.57;;;;;;;;;;5055935;28;20028;-57
2023/01/22 05:46:51;;;;;;;10.87;8.30;;;;;;;;;;5055892;28;20035;-58
2023/01/22 05:49:17;;;;;;;9.17;6.80;;;;;;;;;;5055607;28;20112;-55
2023/01/22 05:51:42;;;;;;;7.97;7.17;;;;;;;;;;5055770;28;20111;-57
2023/01/22 05:54:09;;;;;;;10.13;7.73;;;;;;;;;;5055655;28;20021;-58
2023/01/22 05:56:35;;;;;;;9.83;8.57;;;;;;;;;;5055074;28;20032;-57
2023/01/22 05:59:01;;;;;;;8.43;7.60;;;;;;;;;;5055024;28;20037;-59
2023/01/22 06:01:27;;;;;;;8.33;7.07;;;;;;;;;;5054880;28;20060;-56
2023/01/22 06:03:53;;;;;;;9.73;8.73;;;;;;;;;;5055288;28;20021;-58
2023/01/22 06:06:19;;;;;;;13.80;8.93;;;;;;;;;;5054931;28;20075;-56
2023/01/22 06:08:46;;;;;;;11.03;8.67;;;;;;;;;;5055058;28;20031;-54
2023/01/22 06:11:13;;;;;;;8.57;6.40;;;;;;;;;;5055010;28;20056;-56
2023/01/22 06:13:39;;;;;;;10.57;9.17;;;;;;;;;;5054777;28;20028;-57
2023/01/22 06:16:06;;;;;;;8.17;7.27;;;;;;;;;;5055113;28;20025;-58
2023/01/22 06:18:32;;;;;;;12.00;9.67;;;;;;;;;;5055159;28;20061;-59
2023/01/22 06:20:58;;;;;;;10.17;5.60;;;;;;;;;;5055115;28;20036;-58
2023/01/22 06:23:26;;;;;;;10.97;8.40;;;;;;;;;;5054616;28;20036;-58
2023/01/22 06:25:52;;;;;;;8.63;6.43;;;;;;;;;;5055131;28;20033;-58
2023/01/22 06:28:18;;;;;;;8.03;6.33;;;;;;;;;;5054668;28;20041;-57
2023/01/22 06:30:44;;;;;;;8.40;7.53;;;;;;;;;;5054654;28;20064;-58
2023/01/22 06:33:10;;;;;;;9.93;7.87;;;;;;;;;;5054393;28;20028;-53
2023/01/22 06:35:36;;;;;;;10.47;9.33;;;;;;;;;;5055003;28;20447;-58
2023/01/22 06:38:02;;;;;;;8.80;7.87;;;;;;;;;;5052995;28;20079;-58
2023/01/22 06:40:28;;;;;;;10.20;7.77;;;;;;;;;;5054492;28;20035;-58
2023/01/22 06:42:56;;;;;;;9.27;8.37;;;;;;;;;;5054480;28;20095;-58
2023/01/22 06:45:22;;;;;;;9.57;8.63;;;;;;;;;;5054206;28;20363;-58
2023/01/22 06:47:48;;;;;;;11.10;9.10;;;;;;;;;;5054554;28;20025;-58
2023/01/22 06:50:14;;;;;;;9.90;8.60;;;;;;;;;;5054040;28;20094;-58
2023/01/22 06:52:40;;;;;;;7.13;6.23;;;;;;;;;;5054628;28;20033;-58
2023/01/22 06:55:06;;;;;;;9.87;8.67;;;;;;;;;;5054022;28;20025;-57
2023/01/22 06:57:32;;;;;;;8.30;6.50;;;;;;;;;;5053295;28;20052;-58
2023/01/22 06:59:58;;;;;;;11.77;7.13;;;;;;;;;;5054498;28;20024;-56
2023/01/22 07:02:24;;;;;;;12.97;8.93;;;;;;;;;;5053497;28;20062;-58
2023/01/22 07:04:50;;;;;;;10.23;7.83;;;;;;;;;;5054504;28;20060;-56
2023/01/22 07:07:16;;;;;;;14.57;9.60;;;;;;;;;;5053818;28;20033;-56
2023/01/22 07:09:42;;;;;;;11.13;10.03;;;;;;;;;;5054056;28;20025;-59
2023/01/22 07:12:08;;;;;;;15.03;9.57;;;;;;;;;;5053841;28;20348;-55
2023/01/22 07:14:34;;;;;;;9.23;8.33;;;;;;;;;;5054168;28;20026;-59
2023/01/22 07:17:00;;;;;;;9.33;7.17;;;;;;;;;;5053774;28;20029;-57
2023/01/22 07:19:26;;;;;;;11.27;8.43;;;;;;;;;;5054251;28;20037;-57
2023/01/22 07:21:52;;;;;;;12.13;8.40;;;;;;;;;;5053692;28;20029;-59
2023/01/22 07:24:17;;;;;;;11.30;8.67;;;;;;;;;;5054060;28;20032;-57
2023/01/22 07:26:45;;;;;;;15.40;11.03;;;;;;;;;;5053693;28;20032;-56
2023/01/22 07:29:11;;;;;;;11.43;9.13;;;;;;;;;;5053791;28;20061;-58
2023/01/22 07:31:37;;;;;;;8.53;6.57;;;;;;;;;;5054195;28;20555;-57
2023/01/22 07:34:03;;;;;;;8.60;6.80;;;;;;;;;;5053616;28;20028;-57
2023/01/22 07:36:28;;;;;;;11.17;8.80;;;;;;;;;;5053865;28;20367;-59
2023/01/22 07:38:54;;;;;;;9.07;6.33;;;;;;;;;;5053539;28;20025;-58
2023/01/22 07:41:20;;;;;;;8.90;8.00;;;;;;;;;;5053454;28;20022;-59
2023/01/22 07:43:51;;;;;;;9.27;7.20;;;;;;;;;;5053476;28;20079;-57
2023/01/22 07:46:17;;;;;;;8.30;7.47;;;;;;;;;;5053458;28;20467;-57
2023/01/22 07:48:43;;;;;;;8.67;6.23;;;;;;;;;;5053302;28;20122;-56
2023/01/22 07:51:11;;;;;;;12.93;10.00;;;;;;;;;;5053468;28;20458;-58
2023/01/22 07:53:37;;;;;;;9.53;8.50;;;;;;;;;;5053329;28;20064;-58
2023/01/22 07:56:04;;;;;;;10.60;7.83;;;;;;;;;;5053872;28;20055;-58
2023/01/22 07:58:30;;;;;;;11.20;8.33;;;;;;;;;;5053858;28;20065;-57
2023/01/22 08:00:56;;;;;;;8.90;6.87;;;;;;;;;;5053338;28;20071;-59
2023/01/22 08:03:22;;;;;;;10.40;7.00;;;;;;;;;;5054005;28;20049;-56
2023/01/22 08:05:48;;;;;;;9.23;7.67;;;;;;;;;;5053661;28;20032;-58
2023/01/22 08:08:19;;;;;;;10.30;9.20;;;;;;;;;;5054339;28;20025;-58
2023/01/22 08:10:46;;;;;;;9.73;8.80;;;;;;;;;;5057656;28;20025;-59
2023/01/22 08:13:12;;;;;;;10.07;7.40;;;;;;;;;;5057290;28;20366;-59
2023/01/22 08:15:38;;;;;;;11.13;10.03;;;;;;;;;;5057448;28;20336;-58
2023/01/22 08:18:06;;;;;;;9.47;8.30;;;;;;;;;;5056937;28;20031;-59
2023/01/22 08:20:32;;;;;;;9.40;8.37;;;;;;;;;;5056875;28;20493;-58
2023/01/22 08:22:58;;;;;;;11.40;9.83;;;;;;;;;;5056795;28;20028;-58
2023/01/22 08:25:25;;;;;;;13.10;8.23;;;;;;;;;;5057369;28;20029;-56
2023/01/22 08:27:51;;;;;;;10.83;9.73;;;;;;;;;;5056664;28;20470;-58
2023/01/22 08:30:17;;;;;;;9.13;7.43;;;;;;;;;;5056960;28;20037;-58
2023/01/22 08:32:44;;;;;;;10.37;8.17;;;;;;;;;;5057376;28;20040;-59
2023/01/22 08:35:10;;;;;;;17.57;9.37;;;;;;;;;;5057180;28;20036;-57
2023/01/22 08:37:36;;;;;;;9.50;8.17;;;;;;;;;;5056581;28;20210;-56
2023/01/22 08:40:03;;;;;;;10.53;8.57;;;;;;;;;;5056471;28;20047;-58
2023/01/22 08:42:29;;;;;;;11.10;7.13;;;;;;;;;;5056964;28;20399;-56
2023/01/22 08:44:55;;;;;;;8.77;7.30;;;;;;;;;;5057078;28;20029;-56
2023/01/22 08:47:21;;;;;;;8.17;6.53;;;;;;;;;;5056751;28;20492;-56
2023/01/22 08:49:47;;;;;;;11.40;8.27;;;;;;;;;;5056655;28;20040;-57
2023/01/22 08:52:12;;;;;;;10.27;8.60;;;;;;;;;;5056346;28;20465;-57
2023/01/22 08:54:38;;;;;;;10.13;8.73;;;;;;;;;;5055980;28;20029;-56
2023/01/22 08:57:04;;;;;;;6.57;5.87;;;;;;;;;;5056240;28;20123;-58
2023/01/22 08:59:31;;;;;;;10.50;9.13;;;;;;;;;;5056206;28;20108;-58
2023/01/22 09:02:00;;;;;;;14.23;10.93;;;;;;;;;;5056121;28;20045;-56
2023/01/22 09:04:26;;;;;;;13.37;9.87;;;;;;;;;;5056060;28;20094;-57
2023/01/22 09:06:52;;;;;;;11.97;9.97;;;;;;;;;;5055958;28;20503;-58
2023/01/22 09:09:18;;;;;;;11.53;10.40;;;;;;;;;;5056390;28;20033;-57
2023/01/22 09:11:45;;;;;;;11.90;10.00;;;;;;;;;;5056278;28;20025;-57
2023/01/22 09:14:11;;;;;;;14.70;10.53;;;;;;;;;;5055884;28;20029;-58
2023/01/22 09:16:37;;;;;;;13.87;10.90;;;;;;;;;;5055952;28;20029;-57
2023/01/22 09:19:04;;;;;;;12.77;8.40;;;;;;;;;;5054412;28;20033;-57
2023/01/22 09:21:32;;;;;;;14.73;9.73;;;;;;;;;;5055559;28;20359;-57
2023/01/22 09:23:58;;;;;;;13.17;10.77;;;;;;;;;;5055755;28;20103;-58
2023/01/22 09:26:24;;;;;;;10.13;8.83;;;;;;;;;;5056016;28;20052;-59
2023/01/22 09:28:50;;;;;;;12.20;11.00;;;;;;;;;;5055526;28;20064;-57
2023/01/22 09:31:16;;;;;;;11.90;10.07;;;;;;;;;;5055539;28;20028;-57
2023/01/22 09:33:42;;;;;;;11.67;10.63;;;;;;;;;;5055450;28;20021;-57
2023/01/22 09:36:15;;;;;;;15.50;10.47;;;;;;;;;;5056044;28;20359;-58
2023/01/22 09:38:41;;;;;;;10.37;8.57;;;;;;;;;;5056030;28;20040;-57
2023/01/22 09:41:14;;;;;;;12.53;10.20;;;;;;;;;;5055431;28;20044;-58
2023/01/22 09:43:48;;;;;;;11.77;9.57;;;;;;;;;;5056016;28;20104;-57
2023/01/22 09:46:18;;;;;;;12.23;9.07;;;;;;;;;;5056158;28;20025;-58
2023/01/22 09:48:47;;;;;;;12.80;10.68;;;;;;;;;;5055501;28;20029;-57
2023/01/22 09:51:18;;;;;;;18.10;11.67;;;;;;;;;;5055452;28;20025;-57
2023/01/22 09:53:47;;;;;;;11.63;10.23;;;;;;;;;;5055069;28;20025;-58
2023/01/22 09:56:19;;;;;;;11.40;9.47;;;;;;;;;;5055465;28;20028;-56
2023/01/22 09:58:47;;;;;;;17.90;11.67;;;;;;;;;;5055718;28;20039;-58
2023/01/22 10:01:13;;;;;;;13.10;10.03;;;;;;;;;;5054710;28;20028;-58
2023/01/22 10:03:51;;;;;;;10.80;7.87;;;;;;;;;;5055466;28;20037;-59
2023/01/22 10:06:20;;;;;;;10.63;9.53;;;;;;;;;;5054770;28;20021;-58
2023/01/22 10:09:01;;;;;;;6.33;5.73;;;;;;;;;;5054592;28;20029;-58
2023/01/22 10:11:27;;;;;;;15.00;12.43;;;;;;;;;;5054672;28;20090;-56
2023/01/22 10:13:55;;;;;;;10.50;8.17;;;;;;;;;;5054392;28;20029;-58
2023/01/22 10:16:21;;;;;;;15.40;11.43;;;;;;;;;;5055370;28;20020;-58
2023/01/22 10:18:49;;;;;;;12.80;10.00;;;;;;;;;;5054501;28;20389;-58
2023/01/22 10:21:24;;;;;;;13.50;11.27;;;;;;;;;;5054467;28;20104;-57
2023/01/22 10:23:50;;;;;;;11.53;8.80;;;;;;;;;;5054606;28;20029;-57
2023/01/22 10:26:24;;;;;;;9.90;8.90;;;;;;;;;;5054579;28;20029;-57
2023/01/22 10:28:51;;;;;;;12.63;9.43;;;;;;;;;;5054418;28;20463;-56
2023/01/22 10:31:26;;;;;;;14.93;11.23;;;;;;;;;;5054584;28;20033;-58
2023/01/22 10:34:02;;;;;;;14.23;9.50;;;;;;;;;;5054133;28;20482;-57
2023/01/22 10:36:29;;;;;;;19.00;10.47;;;;;;;;;;5054646;28;20096;-58
2023/01/22 10:39:21;;;;;;;12.07;9.33;;;;;;;;;;5054282;28;20033;-57
2023/01/22 10:41:48;;;;;;;8.63;7.23;;;;;;;;;;5053144;28;20029;-57
2023/01/22 10:44:24;;;;;;;12.30;9.23;;;;;;;;;;5055005;28;20079;-58
2023/01/22 10:46:51;;;;;;;8.00;7.20;;;;;;;;;;5054139;28;20033;-58
2023/01/22 10:49:17;;;;;;;15.23;9.67;;;;;;;;;;5054212;28;20446;-57
2023/01/22 10:51:46;;;;;;;12.77;8.83;;;;;;;;;;5054499;28;20056;-58
2023/01/22 10:54:38;;;;;;;10.43;8.43;;;;;;;;;;5054505;28;20367;-58
2023/01/22 10:57:10;;;;;;;12.30;9.10;;;;;;;;;;5053278;28;20044;-58
2023/01/22 10:59:36;;;;;;;11.30;7.30;;;;;;;;;;5054507;28;20098;-58
2023/01/22 11:02:10;;;;;;;13.73;10.27;;;;;;;;;;5053969;28;20045;-58
2023/01/22 11:04:36;;;;;;;12.00;7.57;;;;;;;;;;5054249;28;20035;-58
2023/01/22 11:07:08;;;;;;;12.70;8.03;;;;;;;;;;5053800;28;20021;-58
2023/01/22 11:09:37;;;;;;;11.27;8.37;;;;;;;;;;5054067;28;20029;-58
2023/01/22 11:12:18;;;;;;;12.03;8.90;;;;;;;;;;5053813;28;20025;-58
2023/01/22 11:14:45;;;;;;;13.80;7.37;;;;;;;;;;5053900;28;20106;-57
2023/01/22 11:17:20;;;;;;;10.80;6.03;;;;;;;;;;5054099;28;20032;-58
2023/01/22 11:19:54;;;;;;;11.53;8.80;;;;;;;;;;5054276;28;20029;-58
2023/01/22 11:22:26;;;;;;;9.43;8.23;;;;;;;;;;5053736;28;20029;-58
2023/01/22 11:24:52;;;;;;;7.70;6.97;;;;;;;;;;5054167;28;20112;-57
2023/01/22 11:27:18;;;;;;;7.40;5.20;;;;;;;;;;5054116;28;20021;-58
2023/01/22 11:29:50;;;;;;;10.67;8.37;;;;;;;;;;5053507;28;20068;-58
2023/01/22 11:32:35;;;;;;;10.83;8.20;;;;;;;;;;5053564;28;20091;-58
2023/01/22 11:35:13;;;;;;;7.87;6.90;;;;;;;;;;5053970;28;20455;-58
2023/01/22 11:37:42;;;;;;;8.57;7.00;;;;;;;;;;5053151;28;20486;-57
2023/01/22 11:40:27;;;;;;;8.90;7.23;;;;;;;;;;5053377;28;20033;-58
2023/01/22 11:43:11;;;;;;;10.87;8.33;;;;;;;;;;5053669;28;20417;-57
2023/01/22 11:45:40;;;;;;;9.47;7.70;;;;;;;;;;5057573;28;20029;-57
2023/01/22 11:48:09;;;;;;;10.63;7.67;;;;;;;;;;5057496;28;20108;-57
2023/01/22 11:51:01;;;;;;;7.87;6.17;;;;;;;;;;5057689;28;20147;-56
2023/01/22 11:53:43;;;;;;;9.93;8.07;;;;;;;;;;5057127;28;20098;-57
2023/01/22 11:56:19;;;;;;;7.70;6.47;;;;;;;;;;5057589;28;20052;-57
2023/01/22 11:58:51;;;;;;;9.33;7.67;;;;;;;;;;5057878;28;20374;-57
2023/01/22 12:01:20;;;;;;;12.57;7.67;;;;;;;;;;5057280;28;20033;-57
2023/01/22 12:03:46;;;;;;;13.33;8.40;;;;;;;;;;5057344;28;20029;-56
2023/01/22 12:06:34;;;;;;;6.00;4.80;;;;;;;;;;5057304;28;20032;-58
2023/01/22 12:09:19;;;;;;;9.37;6.20;;;;;;;;;;5057308;28;20037;-55
2023/01/22 12:12:00;;;;;;;12.53;7.47;;;;;;;;;;5056882;28;20033;-57
2023/01/22 12:14:31;;;;;;;7.77;6.97;;;;;;;;;;5056792;28;20103;-57
2023/01/22 12:17:16;;;;;;;10.63;7.87;;;;;;;;;;5057510;28;20086;-58
2023/01/22 12:20:01;;;;;;;14.20;9.87;;;;;;;;;;5057278;28;20052;-57
2023/01/22 12:22:27;;;;;;;9.13;6.43;;;;;;;;;;5057295;28;20029;-58
2023/01/22 12:24:57;;;;;;;9.30;7.33;;;;;;;;;;5056816;28;20053;-56
2023/01/22 12:27:32;;;;;;;7.85;7.07;;;;;;;;;;5056817;28;20036;-57
2023/01/22 12:30:01;;;;;;;9.67;7.90;;;;;;;;;;5057142;28;20377;-57
2023/01/22 12:32:28;;;;;;;8.57;6.93;;;;;;;;;;5057189;28;20040;-57
2023/01/22 12:34:54;;;;;;;8.13;7.23;;;;;;;;;;5057486;28;20116;-57
2023/01/22 12:37:24;;;;;;;9.53;6.70;;;;;;;;;;5056769;28;20505;-57
2023/01/22 12:40:08;;;;;;;9.02;7.78;;;;;;;;;;5056705;28;20371;-57
2023/01/22 12:42:41;;;;;;;8.53;6.87;;;;;;;;;;5056914;28;20021;-56
2023/01/22 12:45:07;;;;;;;9.57;6.97;;;;;;;;;;5056782;28;20474;-55
2023/01/22 12:47:40;;;;;;;9.93;8.20;;;;;;;;;;5056280;28;20422;-56
2023/01/22 12:50:15;;;;;;;10.50;6.30;;;;;;;;;;5056286;28;20021;-57
2023/01/22 12:52:41;;;;;;;8.83;6.50;;;;;;;;;;5056916;28;20166;-57
2023/01/22 12:55:29;;;;;;;9.03;6.47;;;;;;;;;;5055992;28;20102;-58
2023/01/22 12:57:55;;;;;;;7.53;5.27;;;;;;;;;;5056444;28;20366;-56
2023/01/22 13:00:23;;;;;;;6.80;5.67;;;;;;;;;;5056508;28;20033;-57
2023/01/22 13:02:49;;;;;;;8.73;6.20;;;;;;;;;;5056535;28;20128;-57
2023/01/22 13:05:30;;;;;;;7.47;6.37;;;;;;;;;;5056441;28;20032;-57
2023/01/22 13:08:02;;;;;;;6.00;5.03;;;;;;;;;;5055991;28;20098;-56
2023/01/22 13:10:29;;;;;;;14.70;7.83;;;;;;;;;;5055461;28;20466;-57
2023/01/22 13:13:04;;;;;;;12.03;8.40;;;;;;;;;;5056696;28;20107;-56
2023/01/22 13:15:37;;;;;;;14.80;8.87;;;;;;;;;;5056207;28;20040;-56
2023/01/22 13:18:12;;;;;;;8.13;6.27;;;;;;;;;;5056368;28;20040;-56
2023/01/22 13:20:47;;;;;;;10.57;8.37;;;;;;;;;;5055782;28;20031;-57
2023/01/22 13:23:14;;;;;;;14.30;7.63;;;;;;;;;;5056326;28;20025;-56
2023/01/22 13:25:41;;;;;;;9.00;6.93;;;;;;;;;;5055677;28;20028;-55
2023/01/22 13:28:09;;;;;;;8.10;6.83;;;;;;;;;;5056136;28;20037;-56
2023/01/22 13:30:35;;;;;;;9.23;7.97;;;;;;;;;;5055802;28;20056;-57
2023/01/22 13:33:05;;;;;;;7.93;6.80;;;;;;;;;;5055569;28;20069;-57
2023/01/22 13:35:34;;;;;;;9.00;7.32;;;;;;;;;;5056339;28;20032;-57
2023/01/22 13:38:00;;;;;;;10.40;7.30;;;;;;;;;;5055921;28;20032;-57
2023/01/22 13:40:27;;;;;;;8.50;7.33;;;;;;;;;;5055639;28;20459;-57
2023/01/22 13:42:53;;;;;;;10.53;7.97;;;;;;;;;;5055090;28;20056;-57
2023/01/22 13:45:30;;;;;;;9.73;6.33;;;;;;;;;;5055341;28;20025;-55
2023/01/22 13:47:59;;;;;;;12.87;9.17;;;;;;;;;;5055709;28;20036;-57
2023/01/22 13:50:26;;;;;;;10.43;6.63;;;;;;;;;;5054783;28;20463;-57
2023/01/22 13:52:52;;;;;;;9.07;6.70;;;;;;;;;;5055170;28;20383;-56
2023/01/22 13:55:22;;;;;;;9.93;7.53;;;;;;;;;;5055657;28;20025;-54
2023/01/22 13:57:50;;;;;;;9.50;8.45;;;;;;;;;;5054949;28;20417;-55
2023/01/22 14:00:30;;;;;;;10.77;7.37;;;;;;;;;;5055250;28;20075;-57
2023/01/22 14:02:56;;;;;;;10.13;8.20;;;;;;;;;;5054907;28;20045;-58
2023/01/22 14:05:24;;;;;;;7.40;5.93;;;;;;;;;;5055176;28;20029;-58
2023/01/22 14:07:50;;;;;;;9.13;5.73;;;;;;;;;;5054633;28;20471;-57
2023/01/22 14:10:16;;;;;;;8.63;7.30;;;;;;;;;;5054815;28;20029;-58
2023/01/22 14:12:44;;;;;;;10.23;7.37;;;;;;;;;;5055298;28;20144;-57
2023/01/22 14:15:18;;;;;;;8.30;7.50;;;;;;;;;;5055263;28;20032;-57
2023/01/22 14:17:44;;;;;;;8.00;6.73;;;;;;;;;;5055196;28;20086;-55
2023/01/22 14:20:11;;;;;;;6.83;6.13;;;;;;;;;;5054590;28;20029;-57
2023/01/22 14:22:37;;;;;;;6.93;6.23;;;;;;;;;;5054211;28;20498;-57
2023/01/22 14:25:03;;;;;;;7.27;5.60;;;;;;;;;;5054839;28;20052;-58
2023/01/22 14:27:39;;;;;;;7.27;6.53;;;;;;;;;;5055314;28;20343;-55
2023/01/22 14:30:06;;;;;;;7.37;6.30;;;;;;;;;;5054873;28;20029;-57
2023/01/22 14:32:32;;;;;;;6.97;5.33;;;;;;;;;;5053991;28;20493;-58
2023/01/22 14:34:58;;;;;;;7.50;5.90;;;;;;;;;;5054726;28;20107;-58
2023/01/22 14:37:24;;;;;;;9.13;6.37;;;;;;;;;;5054717;28;20467;-57
2023/01/22 14:39:50;;;;;;;8.57;6.20;;;;;;;;;;5054610;28;20025;-55
2023/01/22 14:42:16;;;;;;;8.70;6.87;;;;;;;;;;5054147;28;20057;-58
2023/01/22 14:44:42;;;;;;;12.93;8.70;;;;;;;;;;5054227;28;20451;-55
2023/01/22 14:47:08;;;;;;;8.03;6.73;;;;;;;;;;5054102;28;20024;-58
2023/01/22 14:49:34;;;;;;;9.17;6.80;;;;;;;;;;5053918;28;20037;-58